Time;durP1;ratioP1;P1;durP2;ratioP2;P2;SDS_P1;SDS_P2;PMS_P1;PMS_P2;Temp;Humidity;BMP_temperature;BMP_pressure;BME280_temperature;BME280_humidity;BME280_pressure;Samples;Min_cycle;Max_cycle;Signal;HPM_P1;HPM_P2
2023/04/11 00:00:32;;;;;;;29.77;5.73;;;9.50;99.90;;;;;;5053237;28;20063;-75
2023/04/11 00:03:00;;;;;;;22.60;5.23;;;9.50;99.90;;;;;;5036638;28;20035;-76
2023/04/11 00:05:27;;;;;;;24.27;5.73;;;9.60;99.90;;;;;;5020808;28;20094;-84
2023/04/11 00:07:52;;;;;;;34.73;6.27;;;9.60;99.90;;;;;;5053117;28;20078;-85
2023/04/11 00:10:18;;;;;;;34.30;6.00;;;9.70;99.90;;;;;;5036531;28;20021;-84
2023/04/11 00:12:44;;;;;;;27.77;4.87;;;9.80;99.90;;;;;;5053312;28;20358;-85
2023/04/11 00:15:10;;;;;;;32.43;6.53;;;9.80;99.90;;;;;;5053333;28;20033;-84
2023/04/11 00:17:36;;;;;;;31.53;6.80;;;9.80;99.90;;;;;;5052872;28;20032;-84
2023/04/11 00:20:06;;;;;;;27.93;6.20;;;9.80;99.90;;;;;;5019876;28;20111;-84
2023/04/11 00:22:35;;;;;;;28.00;5.27;;;9.80;99.90;;;;;;5052877;28;20017;-85
2023/04/11 00:25:01;;;;;;;28.33;5.90;;;9.80;99.90;;;;;;5036315;28;20108;-82
2023/04/11 00:27:26;;;;;;;21.70;5.77;;;9.80;99.90;;;;;;5036138;28;20064;-87
2023/04/11 00:29:55;;;;;;;21.77;4.57;;;9.80;99.90;;;;;;5036256;28;20440;-82
2023/04/11 00:32:20;;;;;;;24.23;5.70;;;9.80;99.90;;;;;;5036329;28;20060;-84
2023/04/11 00:34:46;;;;;;;31.97;5.70;;;9.80;99.90;;;;;;5019210;28;20048;-84
2023/04/11 00:37:13;;;;;;;24.40;5.57;;;9.70;99.90;;;;;;5019575;28;20398;-84
2023/04/11 00:39:39;;;;;;;33.13;6.17;;;9.70;99.90;;;;;;5020003;28;20428;-84
2023/04/11 00:42:05;;;;;;;26.47;6.03;;;9.70;99.90;;;;;;5053873;28;20033;-84
2023/04/11 00:44:31;;;;;;;27.67;5.87;;;9.70;99.90;;;;;;5052561;28;20485;-84
2023/04/11 00:46:59;;;;;;;28.53;5.93;;;9.60;99.90;;;;;;5036035;28;20024;-84
2023/04/11 00:49:25;;;;;;;32.83;5.37;;;9.60;99.90;;;;;;5036195;28;20429;-84
2023/04/11 00:51:51;;;;;;;22.23;5.33;;;9.60;99.90;;;;;;5035997;28;20064;-85
2023/04/11 00:54:17;;;;;;;28.20;5.87;;;9.50;99.90;;;;;;5052376;28;20123;-83
2023/04/11 00:56:43;;;;;;;34.50;6.10;;;9.50;99.90;;;;;;5035788;28;20021;-85
2023/04/11 00:59:09;;;;;;;38.50;6.13;;;9.40;99.90;;;;;;5035497;28;20489;-84
2023/04/11 01:01:37;;;;;;;24.93;5.93;;;9.50;99.90;;;;;;5067318;28;20049;-84
2023/04/11 01:04:03;;;;;;;27.20;5.17;;;9.40;99.90;;;;;;5073836;28;20017;-85
2023/04/11 01:06:29;;;;;;;27.97;5.00;;;9.40;99.90;;;;;;5073942;28;20021;-84
2023/04/11 01:08:56;;;;;;;27.27;4.63;;;9.40;99.90;;;;;;5055561;28;20476;-82
2023/04/11 01:11:22;;;;;;;26.07;5.57;;;9.30;99.90;;;;;;5039117;28;20473;-84
2023/04/11 01:13:49;;;;;;;23.40;4.23;;;9.40;99.90;;;;;;5039051;28;20393;-83
2023/04/11 01:16:15;;;;;;;26.43;5.00;;;9.30;99.90;;;;;;5040022;28;20066;-85
2023/04/11 01:18:41;;;;;;;41.10;6.37;;;9.30;99.90;;;;;;5074135;28;20700;-83
2023/04/11 01:21:07;;;;;;;31.03;5.50;;;9.20;99.90;;;;;;5039545;28;20025;-84
2023/04/11 01:23:33;;;;;;;31.87;6.23;;;9.20;99.90;;;;;;5055858;28;20032;-84
2023/04/11 01:25:59;;;;;;;31.80;6.33;;;9.20;99.90;;;;;;5023225;28;20025;-83
2023/04/11 01:28:25;;;;;;;22.30;4.97;;;9.20;99.90;;;;;;5074331;28;20114;-85
2023/04/11 01:30:50;;;;;;;30.90;5.40;;;9.20;99.90;;;;;;5055541;28;20025;-84
2023/04/11 01:33:16;;;;;;;36.17;5.43;;;9.20;99.90;;;;;;5038667;28;20031;-85
2023/04/11 01:35:42;;;;;;;34.20;6.30;;;9.10;99.90;;;;;;5055477;28;20111;-85
2023/04/11 01:38:08;;;;;;;27.03;5.03;;;9.10;99.90;;;;;;5055052;28;20484;-84
2023/04/11 01:40:34;;;;;;;22.90;4.53;;;9.10;99.90;;;;;;5038925;28;20024;-84
2023/04/11 01:43:03;;;;;;;37.73;5.53;;;9.00;99.90;;;;;;5022184;28;20021;-84
2023/04/11 01:45:30;;;;;;;37.43;5.43;;;9.00;99.90;;;;;;5055058;28;20432;-85
2023/04/11 01:47:56;;;;;;;32.10;6.17;;;9.00;99.90;;;;;;5041887;28;20063;-83
2023/04/11 01:50:23;;;;;;;32.97;5.60;;;9.00;99.90;;;;;;5058952;28;20029;-85
2023/04/11 01:52:49;;;;;;;30.17;5.10;;;9.00;99.90;;;;;;5042407;28;20400;-83
2023/04/11 01:55:15;;;;;;;31.47;4.70;;;9.00;99.90;;;;;;5059022;28;20107;-84
2023/04/11 01:57:41;;;;;;;31.97;4.43;;;8.90;99.90;;;;;;5059053;28;20032;-84
2023/04/11 02:00:09;;;;;;;30.93;4.67;;;8.90;99.90;;;;;;5041988;28;20047;-84
2023/04/11 02:02:35;;;;;;;36.97;5.40;;;8.90;99.90;;;;;;5026329;28;20473;-84
2023/04/11 02:05:02;;;;;;;36.03;5.37;;;8.90;99.90;;;;;;5042216;28;20028;-84
2023/04/11 02:07:28;;;;;;;35.17;5.67;;;8.90;99.90;;;;;;5059058;28;20423;-83
2023/04/11 02:09:53;;;;;;;37.87;5.37;;;8.90;99.90;;;;;;5058621;28;20023;-84
2023/04/11 02:12:19;;;;;;;33.17;5.67;;;8.90;99.90;;;;;;5042016;28;20020;-84
2023/04/11 02:14:45;;;;;;;31.50;4.93;;;8.80;99.90;;;;;;5042069;28;20036;-84
2023/04/11 02:17:11;;;;;;;38.63;5.20;;;8.80;99.90;;;;;;5025520;28;20029;-84
2023/04/11 02:19:44;;;;;;;20.93;4.87;;;8.80;99.90;;;;;;5058465;28;20480;-82
2023/04/11 02:22:10;;;;;;;33.57;5.47;;;8.80;99.90;;;;;;5058298;28;20082;-83
2023/04/11 02:24:36;;;;;;;29.40;5.37;;;8.80;99.90;;;;;;5058357;28;20020;-84
2023/04/11 02:27:01;;;;;;;21.83;4.93;;;8.80;99.90;;;;;;5058333;28;20495;-84
2023/04/11 02:29:27;;;;;;;24.03;3.90;;;8.90;99.90;;;;;;5041824;28;20384;-82
2023/04/11 02:31:54;;;;;;;29.37;5.90;;;8.90;99.90;;;;;;5058320;28;20055;-84
2023/04/11 02:34:19;;;;;;;29.33;4.93;;;8.90;99.90;;;;;;5041510;28;20029;-83
2023/04/11 02:36:45;;;;;;;32.10;5.00;;;9.00;99.90;;;;;;5058201;28;20031;-84
2023/04/11 02:39:12;;;;;;;29.77;4.40;;;9.00;99.90;;;;;;5075986;28;20115;-85
2023/04/11 02:41:39;;;;;;;15.37;2.30;;;9.00;99.90;;;;;;5025240;28;20029;-81
2023/04/11 02:44:05;;;;;;;21.70;2.60;;;8.90;99.90;;;;;;5025547;28;20048;-84
2023/04/11 02:46:30;;;;;;;20.93;2.80;;;8.70;99.90;;;;;;5042166;28;20035;-84
2023/04/11 02:48:56;;;;;;;24.90;4.07;;;8.40;99.90;;;;;;5058235;28;20025;-86
2023/04/11 02:51:22;;;;;;;24.77;3.87;;;8.10;99.90;;;;;;5041457;28;20040;-84
2023/04/11 02:53:47;;;;;;;15.27;3.20;;;8.00;99.90;;;;;;5057968;28;20029;-86
2023/04/11 02:56:17;;;;;;;24.90;3.63;;;7.90;99.90;;;;;;5041458;28;20938;-87
2023/04/11 02:58:43;;;;;;;26.33;3.73;;;8.00;99.90;;;;;;5041228;28;20032;-85
2023/04/11 03:01:10;;;;;;;34.87;3.93;;;8.00;99.90;;;;;;5054283;28;20060;-84
2023/04/11 03:03:37;;;;;;;28.23;3.97;;;7.90;99.90;;;;;;5038150;28;20086;-85
2023/04/11 03:06:05;;;;;;;29.53;3.67;;;8.00;99.90;;;;;;5038251;28;20025;-86
2023/04/11 03:08:31;;;;;;;25.23;3.60;;;8.00;99.90;;;;;;5022166;28;20443;-84
2023/04/11 03:10:57;;;;;;;28.73;4.40;;;8.00;99.90;;;;;;5037848;28;20174;-84
2023/04/11 03:13:22;;;;;;;30.83;4.30;;;8.10;99.90;;;;;;5038319;28;20036;-86
2023/04/11 03:15:48;;;;;;;27.10;4.10;;;8.10;99.90;;;;;;5054305;28;20078;-86
2023/04/11 03:18:14;;;;;;;33.47;4.03;;;8.10;99.90;;;;;;5054178;28;20029;-87
2023/04/11 03:20:40;;;;;;;31.97;4.93;;;8.10;99.90;;;;;;5055674;28;20013;-86
2023/04/11 03:23:05;;;;;;;32.80;3.97;;;8.10;99.90;;;;;;5021153;28;20113;-86
2023/04/11 03:25:31;;;;;;;36.67;5.07;;;8.10;99.90;;;;;;5020953;28;20515;-85
2023/04/11 03:27:57;;;;;;;37.73;4.87;;;8.10;99.90;;;;;;5037406;28;20036;-86
2023/04/11 03:30:22;;;;;;;39.60;5.47;;;8.10;99.90;;;;;;5037610;28;20460;-85
2023/04/11 03:32:48;;;;;;;31.87;4.43;;;8.10;99.90;;;;;;5054046;28;20035;-85
2023/04/11 03:35:13;;;;;;;22.00;3.70;;;8.00;99.90;;;;;;5037346;28;20033;-85
2023/04/11 03:37:39;;;;;;;35.37;4.77;;;8.00;99.90;;;;;;5053964;28;20063;-85
2023/04/11 03:40:07;;;;;;;31.77;4.70;;;8.00;99.90;;;;;;5037465;28;20025;-85
2023/04/11 03:42:34;;;;;;;31.20;4.33;;;8.00;99.90;;;;;;5021412;28;20112;-85
2023/04/11 03:45:00;;;;;;;30.73;4.47;;;7.90;99.90;;;;;;5054093;28;20017;-85
2023/04/11 03:47:26;;;;;;;29.93;4.27;;;8.00;99.90;;;;;;5021576;28;20029;-84
2023/04/11 03:49:51;;;;;;;32.60;4.03;;;7.90;99.90;;;;;;5038106;28;20041;-86
2023/04/11 03:52:17;;;;;;;17.87;3.07;;;7.90;99.90;;;;;;5025281;28;20028;-84
2023/04/11 03:54:43;;;;;;;25.87;3.13;;;7.90;99.90;;;;;;5041891;28;20032;-85
2023/04/11 03:57:09;;;;;;;27.20;3.33;;;7.90;99.90;;;;;;5057821;28;20025;-84
2023/04/11 03:59:35;;;;;;;24.60;4.37;;;7.90;99.90;;;;;;5056729;28;20104;-79
2023/04/11 04:02:01;;;;;;;23.50;3.73;;;7.90;99.90;;;;;;5036835;28;20072;-76
2023/04/11 04:04:26;;;;;;;27.23;3.53;;;7.90;99.90;;;;;;5036590;28;20017;-76
2023/04/11 04:06:55;;;;;;;24.77;3.13;;;7.90;99.90;;;;;;5053367;28;20021;-76
2023/04/11 04:09:22;;;;;;;21.93;4.23;;;7.80;99.90;;;;;;5037216;28;20477;-76
2023/04/11 04:11:49;;;;;;;26.70;3.37;;;7.90;99.90;;;;;;5037027;28;20444;-76
2023/04/11 04:14:15;;;;;;;20.33;4.43;;;7.80;99.90;;;;;;5052983;28;20390;-76
2023/04/11 04:16:40;;;;;;;25.10;3.80;;;7.80;99.90;;;;;;5036434;28;20036;-76
2023/04/11 04:19:06;;;;;;;19.47;3.07;;;7.80;99.90;;;;;;5036434;28;20025;-76
2023/04/11 04:21:36;;;;;;;16.10;2.80;;;7.80;99.90;;;;;;5053138;28;20025;-76
2023/04/11 04:24:03;;;;;;;28.17;3.57;;;7.70;99.90;;;;;;5037168;28;20025;-76
2023/04/11 04:26:30;;;;;;;14.87;2.57;;;7.80;99.90;;;;;;5053057;28;20035;-76
2023/04/11 04:29:03;;;;;;;15.80;3.00;;;7.80;99.90;;;;;;5036040;28;20025;-76
2023/04/11 04:31:32;;;;;;;17.80;2.30;;;7.80;99.90;;;;;;5053091;28;20419;-76
2023/04/11 04:34:07;;;;;;;19.77;3.37;;;7.80;99.90;;;;;;5020282;28;20036;-76
2023/04/11 04:36:45;;;;;;;22.10;2.97;;;7.80;99.90;;;;;;5036548;28;20063;-80
2023/04/11 04:39:18;;;;;;;24.17;2.67;;;7.80;99.90;;;;;;5022720;28;20021;-78
2023/04/11 04:41:48;;;;;;;21.63;3.27;;;7.80;99.90;;;;;;5052552;28;20021;-80
2023/04/11 04:44:17;;;;;;;14.87;2.37;;;7.90;99.90;;;;;;5052489;28;20021;-77
2023/04/11 04:46:43;;;;;;;19.53;2.77;;;7.80;99.90;;;;;;5036113;28;20024;-78
2023/04/11 04:49:09;;;;;;;19.73;2.53;;;7.80;99.90;;;;;;5035733;28;20071;-79
2023/04/11 04:51:36;;;;;;;12.03;2.00;;;7.80;99.90;;;;;;5052227;28;20025;-78
2023/04/11 04:54:03;;;;;;;13.53;2.60;;;7.80;99.90;;;;;;5035728;28;20467;-81
2023/04/11 04:56:29;;;;;;;21.47;2.50;;;7.80;99.90;;;;;;5053524;28;20053;-80
2023/04/11 04:58:56;;;;;;;27.60;3.23;;;7.80;99.90;;;;;;5035430;28;20477;-80
2023/04/11 05:01:25;;;;;;;18.20;2.73;;;7.80;99.90;;;;;;5054031;28;20425;-80
2023/04/11 05:03:58;;;;;;;17.80;2.37;;;7.80;99.90;;;;;;5049002;28;20071;-81
2023/04/11 05:06:30;;;;;;;18.47;2.17;;;7.80;99.90;;;;;;5042565;28;20032;-79
2023/04/11 05:08:58;;;;;;;19.13;2.33;;;7.90;99.90;;;;;;5043931;28;20032;-81
2023/04/11 05:11:25;;;;;;;20.23;4.20;;;7.80;99.90;;;;;;5045025;28;20025;-80
2023/04/11 05:13:51;;;;;;;12.60;1.93;;;7.80;99.90;;;;;;5055390;28;20029;-81
2023/04/11 05:16:17;;;;;;;23.00;2.20;;;7.80;99.90;;;;;;5039066;28;20031;-80
2023/04/11 05:18:43;;;;;;;16.47;2.30;;;7.70;99.90;;;;;;5073561;28;20031;-79
2023/04/11 05:21:09;;;;;;;13.77;1.80;;;7.70;99.90;;;;;;5072802;28;20070;-79
2023/04/11 05:23:35;;;;;;;14.10;1.60;;;7.70;99.90;;;;;;5073190;28;20017;-78
2023/04/11 05:26:01;;;;;;;15.43;1.90;;;7.60;99.90;;;;;;5035919;28;20379;-79
2023/04/11 05:28:27;;;;;;;19.00;2.10;;;7.60;99.90;;;;;;5035224;28;20033;-79
2023/04/11 05:30:52;;;;;;;14.63;2.07;;;7.60;99.90;;;;;;5018652;28;20029;-79
2023/04/11 05:33:18;;;;;;;12.63;1.77;;;7.50;99.90;;;;;;5022657;28;20036;-80
2023/04/11 05:35:44;;;;;;;11.80;1.93;;;7.50;99.90;;;;;;5055134;28;20099;-79
2023/04/11 05:38:10;;;;;;;17.90;2.07;;;7.40;99.90;;;;;;5072885;28;20029;-78
2023/04/11 05:40:36;;;;;;;13.13;1.57;;;7.40;99.90;;;;;;5055157;28;20024;-79
2023/04/11 05:43:02;;;;;;;13.80;1.70;;;7.40;99.90;;;;;;5038527;28;20541;-79
2023/04/11 05:45:28;;;;;;;17.83;2.23;;;7.40;99.90;;;;;;5054905;28;20345;-80
2023/04/11 05:47:55;;;;;;;13.47;1.80;;;7.40;99.90;;;;;;5055034;28;20036;-78
2023/04/11 05:50:21;;;;;;;12.10;1.27;;;7.40;99.90;;;;;;5054943;28;20024;-79
2023/04/11 05:52:46;;;;;;;19.10;1.67;;;7.40;99.90;;;;;;5038413;28;20021;-78
2023/04/11 05:55:12;;;;;;;11.77;1.50;;;7.40;99.90;;;;;;5055048;28;20144;-80
2023/04/11 05:57:38;;;;;;;13.03;2.03;;;7.30;99.90;;;;;;5038084;28;20484;-78
2023/04/11 06:00:15;;;;;;;13.83;1.40;;;7.30;99.90;;;;;;5054796;28;20017;-80
2023/04/11 06:02:42;;;;;;;16.37;2.47;;;7.30;99.90;;;;;;5039573;28;20053;-78
2023/04/11 06:05:10;;;;;;;12.70;1.30;;;7.30;99.90;;;;;;5054844;28;20025;-87
2023/04/11 06:07:40;;;;;;;8.57;1.37;;;7.40;99.90;;;;;;5055405;28;20020;-88
2023/04/11 06:10:07;;;;;;;12.20;1.47;;;7.50;99.90;;;;;;5039537;28;20115;-85
2023/04/11 06:12:33;;;;;;;11.40;1.50;;;7.40;99.90;;;;;;5073432;28;20074;-86
2023/04/11 06:14:59;;;;;;;13.80;1.40;;;7.40;99.90;;;;;;5038789;28;20028;-85
2023/04/11 06:17:25;;;;;;;11.40;1.07;;;7.40;99.90;;;;;;5055471;28;20070;-87
2023/04/11 06:19:51;;;;;;;8.40;1.13;;;7.40;99.90;;;;;;5055312;28;20427;-86
2023/04/11 06:22:16;;;;;;;12.43;1.77;;;7.50;99.90;;;;;;5055691;28;20383;-85
2023/04/11 06:24:44;;;;;;;11.03;1.00;;;7.50;99.90;;;;;;5038946;28;20029;-87
2023/04/11 06:27:10;;;;;;;12.63;1.17;;;7.50;99.90;;;;;;5055007;28;20489;-87
2023/04/11 06:29:37;;;;;;;16.33;1.70;;;7.50;99.90;;;;;;5055472;28;20043;-85
2023/04/11 06:32:02;;;;;;;12.57;1.60;;;7.60;99.90;;;;;;5038804;28;20491;-86
2023/04/11 06:34:28;;;;;;;12.33;1.63;;;7.60;99.90;;;;;;5057158;28;20021;-84
2023/04/11 06:36:54;;;;;;;11.93;1.93;;;7.80;99.90;;;;;;5042137;28;20021;-84
2023/04/11 06:39:20;;;;;;;13.87;2.00;;;7.70;99.90;;;;;;5041841;28;20116;-86
2023/04/11 06:41:46;;;;;;;9.53;1.93;;;7.80;99.90;;;;;;5058466;28;20388;-87
2023/04/11 06:44:13;;;;;;;15.87;2.90;;;7.80;99.90;;;;;;5042224;28;20070;-85
2023/04/11 06:46:38;;;;;;;8.90;1.70;;;7.90;99.90;;;;;;5042004;28;20024;-86
2023/04/11 06:49:07;;;;;;;13.70;3.03;;;7.90;99.90;;;;;;5058084;28;20031;-87
2023/04/11 06:51:33;;;;;;;15.13;2.30;;;8.00;99.90;;;;;;5042035;28;20056;-85
2023/04/11 06:53:59;;;;;;;20.00;2.20;;;8.00;99.90;;;;;;5058246;28;20029;-87
2023/04/11 06:56:25;;;;;;;17.77;3.37;;;8.10;99.90;;;;;;5041486;28;20123;-86
2023/04/11 06:58:51;;;;;;;16.20;1.90;;;8.10;99.90;;;;;;5041627;28;20035;-86
2023/04/11 07:01:19;;;;;;;17.90;2.83;;;8.20;99.90;;;;;;5058013;28;20074;-85
2023/04/11 07:03:46;;;;;;;16.67;2.67;;;8.20;99.90;;;;;;5058203;28;20032;-86
2023/04/11 07:06:12;;;;;;;17.63;2.47;;;8.30;99.90;;;;;;5057998;28;20027;-86
2023/04/11 07:08:37;;;;;;;14.67;2.10;;;8.30;99.90;;;;;;5057995;28;20028;-86
2023/04/11 07:11:03;;;;;;;13.43;1.80;;;8.40;99.90;;;;;;5041963;28;20036;-87
2023/04/11 07:13:29;;;;;;;16.07;1.47;;;8.50;99.90;;;;;;5041987;28;20503;-86
2023/04/11 07:15:55;;;;;;;11.37;1.70;;;8.50;99.90;;;;;;5041966;28;20032;-86
2023/04/11 07:18:21;;;;;;;10.70;1.67;;;8.60;99.90;;;;;;5041977;28;20028;-84
2023/04/11 07:20:47;;;;;;;17.07;2.57;;;8.70;99.90;;;;;;5058652;28;20021;-85
2023/04/11 07:23:13;;;;;;;11.97;2.13;;;8.80;99.90;;;;;;5057818;28;20024;-85
2023/04/11 07:25:39;;;;;;;14.40;1.90;;;8.90;99.90;;;;;;5058214;28;20078;-85
2023/04/11 07:28:07;;;;;;;10.27;1.70;;;8.90;99.90;;;;;;5041212;28;20028;-86
2023/04/11 07:30:36;;;;;;;9.53;1.57;;;9.00;99.90;;;;;;5057888;28;20047;-86
2023/04/11 07:33:03;;;;;;;12.97;1.53;;;9.00;99.90;;;;;;5057468;28;20393;-84
2023/04/11 07:35:30;;;;;;;13.00;2.10;;;9.10;99.90;;;;;;5057497;28;20020;-85
2023/04/11 07:37:57;;;;;;;13.77;1.73;;;9.10;99.90;;;;;;5075415;28;20020;-86
2023/04/11 07:40:27;;;;;;;12.80;1.43;;;9.10;99.90;;;;;;5058929;28;20155;-84
2023/04/11 07:42:53;;;;;;;11.17;1.60;;;9.10;99.90;;;;;;5040992;28;20062;-85
2023/04/11 07:45:19;;;;;;;8.23;1.27;;;9.10;99.90;;;;;;5040334;28;20104;-85
2023/04/11 07:47:45;;;;;;;6.73;1.00;;;9.20;99.90;;;;;;5057261;28;20019;-86
2023/04/11 07:50:11;;;;;;;9.43;1.00;;;9.30;99.90;;;;;;5057612;28;20099;-86
2023/04/11 07:52:36;;;;;;;11.03;1.20;;;9.60;99.90;;;;;;5057429;28;20054;-86
2023/04/11 07:55:03;;;;;;;8.07;1.10;;;9.70;99.10;;;;;;5040772;28;20021;-87
2023/04/11 07:57:29;;;;;;;10.63;1.73;;;9.90;97.90;;;;;;5040765;28;20029;-87
2023/04/11 07:59:57;;;;;;;11.00;1.23;;;9.90;96.00;;;;;;5040583;28;20059;-85
2023/04/11 08:02:23;;;;;;;10.77;1.30;;;9.90;95.20;;;;;;5053554;28;20053;-84
2023/04/11 08:04:49;;;;;;;9.83;1.03;;;9.90;94.70;;;;;;5037514;28;20029;-85
2023/04/11 08:07:14;;;;;;;6.97;1.17;;;9.90;94.60;;;;;;5038007;28;20029;-87
2023/04/11 08:09:43;;;;;;;12.20;1.67;;;10.00;94.60;;;;;;5037447;28;20032;-85
2023/04/11 08:12:09;;;;;;;8.43;1.10;;;10.10;95.40;;;;;;5038002;28;20480;-86
2023/04/11 08:14:36;;;;;;;10.27;1.43;;;10.10;94.20;;;;;;5037175;28;20052;-89
2023/04/11 08:17:01;;;;;;;11.70;2.07;;;10.30;93.20;;;;;;5037299;28;20033;-86
2023/04/11 08:19:27;;;;;;;8.83;1.43;;;10.30;93.00;;;;;;5036810;28;20124;-87
2023/04/11 08:21:53;;;;;;;11.17;1.20;;;10.30;93.40;;;;;;5037045;28;20029;-87
2023/04/11 08:24:19;;;;;;;12.83;1.53;;;10.40;92.70;;;;;;5036634;28;20029;-79
2023/04/11 08:26:45;;;;;;;9.97;1.67;;;10.30;92.10;;;;;;5052629;28;20025;-80
2023/04/11 08:29:11;;;;;;;9.67;1.10;;;10.30;91.80;;;;;;5052977;28;20367;-79
2023/04/11 08:31:43;;;;;;;13.50;1.73;;;10.30;91.50;;;;;;5052960;28;20044;-79
2023/04/11 08:34:10;;;;;;;10.33;1.67;;;10.30;90.40;;;;;;5036170;28;20485;-77
2023/04/11 08:36:36;;;;;;;7.60;1.20;;;10.30;90.20;;;;;;5052639;28;20079;-78
2023/04/11 08:39:02;;;;;;;7.33;1.10;;;10.30;89.10;;;;;;5035923;28;20033;-78
2023/04/11 08:41:32;;;;;;;10.40;1.10;;;10.30;88.60;;;;;;5053863;28;20047;-79
2023/04/11 08:43:58;;;;;;;14.00;1.80;;;10.30;86.20;;;;;;5036298;28;20051;-76
2023/04/11 08:46:23;;;;;;;10.53;2.00;;;10.30;87.00;;;;;;5052481;28;20112;-79
2023/04/11 08:48:50;;;;;;;10.57;1.00;;;10.30;87.90;;;;;;5052456;28;20060;-78
2023/04/11 08:51:24;;;;;;;13.50;2.07;;;10.30;89.30;;;;;;5052263;28;20033;-80
2023/04/11 08:53:53;;;;;;;;;;;10.50;86.20;;;;;;5052820;28;20393;-78
2023/04/11 08:56:19;;;;;;;11.17;1.20;;;10.50;82.50;;;;;;5051501;28;19904;-79
2023/04/11 08:58:45;;;;;;;6.77;1.27;;;10.50;82.50;;;;;;5053413;28;20031;-79
2023/04/11 09:01:24;;;;;;;9.97;1.43;;;10.50;83.90;;;;;;5054095;28;20013;-78
2023/04/11 09:03:51;;;;;;;13.43;1.47;;;10.60;83.60;;;;;;5055617;28;20024;-79
2023/04/11 09:06:16;;;;;;;10.53;1.50;;;10.70;84.10;;;;;;5055652;28;20066;-79
2023/04/11 09:08:42;;;;;;;11.17;1.27;;;10.70;83.20;;;;;;5055476;28;20426;-78
2023/04/11 09:11:08;;;;;;;8.37;1.30;;;10.90;84.10;;;;;;5055328;28;20017;-79
2023/04/11 09:13:33;;;;;;;10.83;1.30;;;11.00;83.80;;;;;;5038869;28;20031;-80
2023/04/11 09:16:08;;;;;;;14.55;1.15;;;11.10;82.60;;;;;;5038579;28;20036;-79
2023/04/11 09:18:38;;;;;;;10.20;1.15;;;11.20;82.00;;;;;;5055290;28;20032;-79
2023/04/11 09:21:06;;;;;;;7.85;1.00;;;11.30;81.60;;;;;;5055584;28;20439;-79
2023/04/11 09:23:32;;;;;;;11.80;1.88;;;11.40;80.30;;;;;;5073191;28;20047;-79
2023/04/11 09:25:57;;;;;;;7.00;1.42;;;11.40;80.20;;;;;;5038575;28;20024;-79
2023/04/11 09:28:24;;;;;;;8.98;1.20;;;11.40;81.30;;;;;;5055374;28;20021;-79
2023/04/11 09:30:51;;;;;;;9.13;1.30;;;11.40;80.40;;;;;;5073251;28;20051;-79
2023/04/11 09:33:30;;;;;;;10.05;1.10;;;11.40;79.90;;;;;;5055472;28;20032;-79
2023/04/11 09:35:56;;;;;;;10.75;1.58;;;11.30;80.80;;;;;;5039089;28;20036;-79
2023/04/11 09:38:31;;;;;;;8.25;1.20;;;11.30;81.10;;;;;;5038914;28;20435;-78
2023/04/11 09:40:58;;;;;;;6.68;1.02;;;11.40;78.80;;;;;;5038736;28;20031;-76
2023/04/11 09:43:24;;;;;;;7.22;1.40;;;11.40;76.20;;;;;;5055141;28;20021;-78
2023/04/11 09:46:08;;;;;;;6.30;1.50;;;11.50;76.40;;;;;;5055632;28;20025;-79
2023/04/11 09:48:36;;;;;;;9.73;1.05;;;11.70;77.30;;;;;;5055769;28;20044;-79
2023/04/11 09:51:05;;;;;;;8.32;1.30;;;11.80;76.40;;;;;;5038913;28;20028;-78
2023/04/11 09:53:33;;;;;;;9.57;1.30;;;11.90;76.30;;;;;;5055524;28;20021;-85
2023/04/11 09:55:59;;;;;;;13.27;1.52;;;11.90;75.80;;;;;;5073023;28;20475;-78
2023/04/11 09:58:26;;;;;;;9.88;1.27;;;11.90;75.30;;;;;;5038449;28;20032;-78
2023/04/11 10:00:55;;;;;;;9.27;1.30;;;11.90;75.40;;;;;;5073375;28;20511;-77
2023/04/11 10:03:22;;;;;;;4.43;0.77;;;11.90;74.20;;;;;;5051508;28;20076;-80
2023/04/11 10:05:53;;;;;;;7.35;1.00;;;11.90;72.20;;;;;;5035308;28;20510;-80
2023/04/11 10:08:31;;;;;;;5.38;0.68;;;11.90;73.20;;;;;;5053565;28;20175;-80
2023/04/11 10:11:02;;;;;;;6.95;0.60;;;11.90;71.10;;;;;;5055434;28;20103;-81
2023/04/11 10:13:34;;;;;;;8.55;1.60;;;12.00;71.00;;;;;;5055889;28;20049;-78
2023/04/11 10:16:21;;;;;;;12.80;1.33;;;12.10;70.00;;;;;;5055422;28;20032;-78
2023/04/11 10:18:52;;;;;;;4.55;0.70;;;12.40;67.60;;;;;;5055541;28;20021;-77
2023/04/11 10:21:36;;;;;;;6.00;0.70;;;12.50;64.90;;;;;;5055063;28;20171;-77
2023/04/11 10:24:16;;;;;;;4.78;0.77;;;12.80;65.40;;;;;;5057159;28;20496;-85
2023/04/11 10:26:56;;;;;;;9.15;0.65;;;13.10;64.20;;;;;;5056119;28;20021;-84
2023/04/11 10:29:28;;;;;;;9.38;0.90;;;13.60;64.20;;;;;;5055572;28;20074;-85
2023/04/11 10:32:17;;;;;;;6.22;0.73;;;14.10;63.40;;;;;;5055625;28;20037;-83
2023/04/11 10:34:49;;;;;;;6.45;0.98;;;14.70;60.70;;;;;;5057102;28;20082;-84
2023/04/11 10:37:16;;;;;;;6.70;0.80;;;15.20;61.10;;;;;;5055367;28;20033;-86
2023/04/11 10:39:59;;;;;;;4.82;0.60;;;15.60;60.80;;;;;;5055474;28;20539;-84
2023/04/11 10:42:26;;;;;;;9.07;0.90;;;16.20;60.30;;;;;;5055669;28;20048;-84
2023/04/11 10:45:17;;;;;;;4.03;0.73;;;16.70;55.70;;;;;;5055110;28;20025;-86
2023/04/11 10:47:57;;;;;;;6.40;0.90;;;17.00;56.20;;;;;;5056486;28;20029;-86
2023/04/11 10:50:26;;;;;;;7.30;1.00;;;17.50;54.40;;;;;;5055178;28;20362;-86
2023/04/11 10:52:55;;;;;;;11.50;1.25;;;17.70;52.40;;;;;;5056423;28;20091;-85
2023/04/11 10:55:23;;;;;;;3.08;0.73;;;17.80;51.90;;;;;;5055137;28;20027;-87
2023/04/11 10:58:07;;;;;;;6.68;1.10;;;18.00;51.90;;;;;;5055542;28;20121;-87
2023/04/11 11:00:51;;;;;;;7.05;0.70;;;18.50;51.70;;;;;;5054919;28;20031;-86
2023/04/11 11:03:18;;;;;;;;;;;18.90;50.80;;;;;;5055002;28;20049;-85
2023/04/11 11:05:44;;;;;;;4.35;0.70;;;19.10;49.40;;;;;;5054855;28;19908;-84
2023/04/11 11:08:10;;;;;;;5.93;0.60;;;19.10;48.90;;;;;;5055035;28;20024;-85
2023/04/11 11:10:41;;;;;;;7.28;0.70;;;19.20;48.50;;;;;;5054937;28;20025;-85
2023/04/11 11:13:07;;;;;;;8.40;0.77;;;19.40;47.80;;;;;;5054830;28;20021;-85
2023/04/11 11:15:36;;;;;;;6.80;0.80;;;19.50;48.00;;;;;;5054866;28;20032;-84
2023/04/11 11:18:09;;;;;;;6.68;0.85;;;19.60;47.30;;;;;;5054840;28;20028;-84
2023/04/11 11:20:36;;;;;;;5.03;0.88;;;19.50;45.00;;;;;;5037554;28;20017;-84
2023/04/11 11:23:11;;;;;;;4.55;0.90;;;19.50;45.80;;;;;;5055881;28;20051;-84
2023/04/11 11:25:36;;;;;;;6.65;0.75;;;19.60;45.80;;;;;;5055290;28;20044;-85
2023/04/11 11:28:07;;;;;;;5.35;0.98;;;19.70;45.40;;;;;;5054510;28;20473;-84
2023/04/11 11:30:35;;;;;;;4.25;0.80;;;19.70;44.40;;;;;;5054694;28;20024;-86
2023/04/11 11:33:18;;;;;;;7.40;0.80;;;19.70;43.70;;;;;;5054263;28;20033;-84
2023/04/11 11:35:56;;;;;;;8.77;1.17;;;19.30;42.40;;;;;;5038131;28;20377;-85
2023/04/11 11:38:25;;;;;;;6.47;1.10;;;18.80;43.90;;;;;;5054745;28;20040;-85
2023/04/11 11:40:52;;;;;;;5.53;0.70;;;18.80;44.60;;;;;;5055502;28;20013;-84
2023/04/11 11:43:18;;;;;;;7.28;1.02;;;18.90;46.00;;;;;;5037566;28;20119;-77
2023/04/11 11:45:44;;;;;;;8.55;1.05;;;19.20;44.80;;;;;;5053654;28;20040;-78
2023/04/11 11:48:23;;;;;;;9.30;0.95;;;19.20;45.20;;;;;;5053870;28;20035;-76
2023/04/11 11:50:56;;;;;;;4.63;0.70;;;19.30;44.60;;;;;;5053587;28;20033;-78
2023/04/11 11:53:23;;;;;;;6.15;1.30;;;19.30;45.00;;;;;;5054698;28;20051;-77
2023/04/11 11:55:49;;;;;;;7.90;1.10;;;19.40;45.40;;;;;;5037256;28;20115;-85
2023/04/11 11:58:16;;;;;;;7.18;1.30;;;19.70;45.00;;;;;;5037298;28;20052;-85
2023/04/11 12:00:46;;;;;;;5.20;0.90;;;19.80;43.90;;;;;;5037770;28;20393;-81
2023/04/11 12:03:17;;;;;;;4.22;0.70;;;19.80;44.20;;;;;;5053810;28;20069;-86
2023/04/11 12:05:43;;;;;;;6.05;0.82;;;19.70;44.10;;;;;;5053861;28;20025;-83
2023/04/11 12:08:09;;;;;;;6.45;0.80;;;19.60;44.20;;;;;;5055023;28;20025;-77
2023/04/11 12:10:40;;;;;;;5.07;1.17;;;19.40;43.70;;;;;;5053128;28;20075;-78
2023/04/11 12:13:22;;;;;;;7.05;1.00;;;19.20;44.70;;;;;;5053344;28;20017;-77
2023/04/11 12:15:55;;;;;;;7.13;0.85;;;19.50;44.90;;;;;;5054532;28;20017;-76
2023/04/11 12:18:22;;;;;;;5.25;1.00;;;19.70;44.30;;;;;;5052931;28;20025;-77
2023/04/11 12:20:49;;;;;;;6.18;1.20;;;19.50;43.90;;;;;;5036526;28;20067;-78
2023/04/11 12:23:14;;;;;;;6.53;1.15;;;19.50;44.60;;;;;;5036382;28;20021;-80
2023/04/11 12:25:40;;;;;;;7.28;1.13;;;19.60;44.20;;;;;;5054322;28;20024;-78
2023/04/11 12:28:07;;;;;;;7.25;1.13;;;19.60;44.40;;;;;;5053022;28;20032;-77
2023/04/11 12:30:33;;;;;;;8.05;1.17;;;19.60;44.40;;;;;;5052716;28;20512;-79
2023/04/11 12:32:58;;;;;;;7.15;0.80;;;20.00;44.40;;;;;;5054081;28;20025;-79
2023/04/11 12:35:24;;;;;;;5.55;1.35;;;20.40;43.90;;;;;;5036177;28;20032;-79
2023/04/11 12:37:50;;;;;;;9.70;0.95;;;20.30;42.80;;;;;;5052823;28;20033;-77
2023/04/11 12:40:16;;;;;;;7.35;0.95;;;20.30;42.90;;;;;;5035954;28;20029;-78
2023/04/11 12:42:45;;;;;;;6.28;1.05;;;20.20;43.30;;;;;;5053832;28;20109;-77
2023/04/11 12:45:11;;;;;;;5.05;0.80;;;20.30;43.30;;;;;;5036353;28;20021;-78
2023/04/11 12:47:37;;;;;;;3.47;0.75;;;20.40;42.10;;;;;;5035889;28;20021;-78
2023/04/11 12:50:05;;;;;;;8.18;1.02;;;20.40;42.80;;;;;;5052367;28;20087;-79